createdAt,value
2023-06-17T00:01:07.006Z,10.82
2023-06-17T00:03:09.106Z,8.07
2023-06-17T00:05:11.351Z,6.07
2023-06-17T00:07:13.489Z,7.28
2023-06-17T00:09:15.649Z,7.65
2023-06-17T00:11:17.640Z,11.68
2023-06-17T00:13:21.046Z,9.18
2023-06-17T00:15:24.037Z,9.82
2023-06-17T00:17:26.042Z,9.52
2023-06-17T00:19:29.385Z,7.75
2023-06-17T00:21:31.744Z,11.10
2023-06-17T00:23:33.621Z,9.52
2023-06-17T00:25:35.685Z,8.82
2023-06-17T00:27:37.669Z,10.68
2023-06-17T00:29:39.599Z,8.90
2023-06-17T00:31:41.496Z,9.95
2023-06-17T00:33:43.451Z,10.07
2023-06-17T00:35:45.437Z,13.10
2023-06-17T00:37:47.807Z,8.75
2023-06-17T00:39:49.862Z,12.15
2023-06-17T00:41:51.973Z,9.68
2023-06-17T00:43:53.877Z,10.32
2023-06-17T00:45:56.249Z,9.30
2023-06-17T00:48:00.718Z,10.52
2023-06-17T00:50:04.201Z,6.47
2023-06-17T00:52:30.995Z,7.32
2023-06-17T00:54:33.406Z,10.55
2023-06-17T00:56:38.330Z,7.47
2023-06-17T00:58:42.409Z,8.70
2023-06-17T01:00:44.369Z,9.52
2023-06-17T01:02:47.715Z,9.38
2023-06-17T01:04:49.998Z,7.32
2023-06-17T01:06:57.199Z,8.98
2023-06-17T01:09:04.230Z,10.02
2023-06-17T01:11:12.181Z,5.93
2023-06-17T01:13:16.548Z,7.30
2023-06-17T01:15:18.863Z,9.02
2023-06-17T01:17:22.071Z,6.63
2023-06-17T01:19:25.983Z,6.47
2023-06-17T01:21:31.087Z,6.32
2023-06-17T01:23:36.387Z,9.30
2023-06-17T01:25:38.939Z,7.20
2023-06-17T01:27:42.656Z,6.93
2023-06-17T01:29:48.378Z,7.10
2023-06-17T01:31:51.841Z,7.97
2023-06-17T01:33:58.522Z,8.15
2023-06-17T01:36:06.421Z,5.88
2023-06-17T01:38:17.074Z,7.75
2023-06-17T01:42:37.171Z,8.48
2023-06-17T01:44:41.270Z,9.80
2023-06-17T01:46:44.536Z,9.50
2023-06-17T01:48:46.939Z,8.45
2023-06-17T01:50:49.007Z,4.57
2023-06-17T01:52:51.223Z,6.47
2023-06-17T01:54:53.476Z,8.90
2023-06-17T01:56:55.646Z,7.68
2023-06-17T01:58:57.725Z,4.55
2023-06-17T02:00:59.836Z,4.97
2023-06-17T02:03:02.195Z,6.38
2023-06-17T02:05:04.785Z,8.60
2023-06-17T02:07:07.254Z,5.07
2023-06-17T02:09:10.254Z,5.18
2023-06-17T02:11:12.983Z,6.40
2023-06-17T02:13:15.142Z,6.60
2023-06-17T02:15:17.885Z,4.00
2023-06-17T02:17:20.117Z,4.60
2023-06-17T02:19:22.872Z,4.38
2023-06-17T02:21:25.105Z,6.18
2023-06-17T02:23:27.576Z,6.45
2023-06-17T02:25:29.764Z,6.53
2023-06-17T02:27:32.030Z,4.68
2023-06-17T02:29:34.202Z,6.35
2023-06-17T02:31:36.473Z,4.40
2023-06-17T02:33:38.594Z,4.97
2023-06-17T02:35:40.787Z,3.85
2023-06-17T02:37:44.712Z,4.75
2023-06-17T02:39:46.794Z,6.70
2023-06-17T02:41:49.264Z,5.75
2023-06-17T02:43:51.662Z,8.73
2023-06-17T02:45:53.734Z,3.88
2023-06-17T02:47:56.256Z,4.10
2023-06-17T02:49:58.397Z,3.47
2023-06-17T02:52:00.614Z,5.10
2023-06-17T02:54:03.351Z,8.25
2023-06-17T02:56:06.063Z,4.47
2023-06-17T02:58:08.297Z,5.25
2023-06-17T03:00:12.262Z,4.10
2023-06-17T03:02:14.300Z,3.78
2023-06-17T03:04:16.412Z,5.30
2023-06-17T03:06:20.473Z,4.38
2023-06-17T03:08:22.539Z,4.63
2023-06-17T03:10:24.800Z,5.68
2023-06-17T03:12:26.993Z,5.68
2023-06-17T03:14:30.554Z,5.95
2023-06-17T03:16:35.421Z,4.50
2023-06-17T03:18:37.701Z,6.00
2023-06-17T03:20:40.113Z,3.08
2023-06-17T03:22:42.612Z,7.70
2023-06-17T03:24:44.727Z,11.93
2023-06-17T03:26:47.007Z,7.20
2023-06-17T03:28:49.097Z,5.50
2023-06-17T03:30:51.198Z,3.35
2023-06-17T03:32:55.195Z,3.53
2023-06-17T03:34:58.417Z,7.70
2023-06-17T03:37:00.611Z,3.92
2023-06-17T03:39:02.689Z,4.65
2023-06-17T03:41:04.844Z,2.25
2023-06-17T03:43:07.079Z,4.05
2023-06-17T03:45:10.237Z,4.75
2023-06-17T03:47:12.287Z,4.88
2023-06-17T03:49:14.308Z,3.30
2023-06-17T03:51:18.255Z,6.68
2023-06-17T03:53:20.467Z,7.50
2023-06-17T03:55:23.885Z,5.85
2023-06-17T03:57:27.164Z,2.88
2023-06-17T03:59:29.370Z,4.43
2023-06-17T04:01:31.961Z,6.78
2023-06-17T04:03:35.930Z,3.17
2023-06-17T04:05:39.406Z,2.90
2023-06-17T04:07:41.472Z,7.05
2023-06-17T04:09:51.220Z,5.43
2023-06-17T04:12:04.932Z,3.92
2023-06-17T04:14:07.276Z,7.28
2023-06-17T04:16:09.316Z,3.80
2023-06-17T04:18:11.692Z,3.20
2023-06-17T04:20:13.938Z,4.68
2023-06-17T04:22:16.159Z,3.30
2023-06-17T04:24:18.540Z,3.75
2023-06-17T04:26:20.617Z,3.20
2023-06-17T04:28:24.490Z,3.33
2023-06-17T04:30:26.685Z,7.30
2023-06-17T04:32:28.789Z,5.00
2023-06-17T04:34:31.277Z,6.63
2023-06-17T04:36:33.939Z,3.05
2023-06-17T04:38:39.038Z,3.67
2023-06-17T04:40:41.134Z,4.68
2023-06-17T04:42:46.673Z,7.55
2023-06-17T04:44:50.428Z,2.58
2023-06-17T04:46:52.665Z,4.53
2023-06-17T04:48:55.339Z,3.78
2023-06-17T04:50:59.343Z,3.63
2023-06-17T04:53:05.470Z,3.28
2023-06-17T04:55:09.219Z,4.10
2023-06-17T04:57:11.669Z,3.10
2023-06-17T04:59:13.886Z,5.63
2023-06-17T05:01:16.124Z,4.50
2023-06-17T05:03:18.215Z,4.05
2023-06-17T05:05:20.424Z,5.70
2023-06-17T05:07:22.762Z,5.25
2023-06-17T05:09:24.930Z,4.78
2023-06-17T05:11:27.976Z,4.43
2023-06-17T05:13:30.227Z,3.53
2023-06-17T05:15:32.307Z,3.75
2023-06-17T05:17:34.432Z,4.28
2023-06-17T05:19:36.352Z,6.90
2023-06-17T05:21:38.402Z,5.57
2023-06-17T05:23:40.478Z,6.50
2023-06-17T05:25:42.484Z,4.35
2023-06-17T05:27:44.894Z,3.45
2023-06-17T05:29:46.903Z,5.50
2023-06-17T05:31:49.241Z,3.40
2023-06-17T05:33:51.236Z,4.85
2023-06-17T05:35:53.436Z,5.38
2023-06-17T05:37:55.538Z,4.88
2023-06-17T05:39:57.498Z,6.97
2023-06-17T05:41:59.587Z,7.70
2023-06-17T05:44:01.658Z,4.50
2023-06-17T05:46:03.759Z,3.95
2023-06-17T05:48:06.094Z,2.85
2023-06-17T05:50:08.474Z,3.60
2023-06-17T05:52:12.159Z,5.22
2023-06-17T05:54:14.191Z,6.18
2023-06-17T05:56:16.109Z,6.15
2023-06-17T05:58:18.365Z,2.47
2023-06-17T06:00:21.159Z,6.45
2023-06-17T06:02:23.986Z,3.03
2023-06-17T06:04:26.057Z,4.18
2023-06-17T06:06:28.074Z,5.35
2023-06-17T06:08:30.278Z,3.05
2023-06-17T06:10:32.362Z,6.35
2023-06-17T06:12:34.779Z,6.05
2023-06-17T06:14:36.805Z,4.78
2023-06-17T06:16:38.883Z,4.82
2023-06-17T06:18:41.153Z,7.63
2023-06-17T06:20:43.498Z,3.97
2023-06-17T06:22:46.103Z,3.95
2023-06-17T06:24:48.168Z,3.20
2023-06-17T06:26:50.197Z,5.43
2023-06-17T06:28:52.276Z,4.22
2023-06-17T06:30:54.283Z,8.57
2023-06-17T06:32:56.345Z,3.80
2023-06-17T06:34:58.558Z,2.88
2023-06-17T06:37:01.223Z,3.67
2023-06-17T06:39:03.319Z,6.05
2023-06-17T06:41:05.354Z,5.30
2023-06-17T06:43:07.513Z,2.47
2023-06-17T06:45:10.073Z,4.05
2023-06-17T06:47:12.275Z,6.05
2023-06-17T06:49:14.268Z,6.07
2023-06-17T06:51:16.407Z,3.33
2023-06-17T06:53:20.642Z,5.38
2023-06-17T06:55:22.608Z,4.55
2023-06-17T06:57:24.670Z,6.95
2023-06-17T06:59:26.846Z,4.82
2023-06-17T07:01:28.886Z,3.65
2023-06-17T07:03:31.028Z,3.25
2023-06-17T07:05:33.059Z,3.30
2023-06-17T07:07:35.056Z,4.22
2023-06-17T07:09:37.108Z,3.70
2023-06-17T07:11:39.369Z,5.28
2023-06-17T07:13:42.455Z,5.20
2023-06-17T07:15:46.616Z,5.57
2023-06-17T07:17:48.916Z,7.30
2023-06-17T07:19:50.889Z,4.65
2023-06-17T07:21:52.968Z,7.75
2023-06-17T07:23:54.979Z,4.22
2023-06-17T07:25:57.063Z,6.88
2023-06-17T07:28:01.140Z,3.50
2023-06-17T07:30:03.417Z,4.25
2023-06-17T07:32:05.690Z,7.82
2023-06-17T07:34:08.051Z,5.93
2023-06-17T07:36:10.165Z,3.47
2023-06-17T07:38:12.164Z,4.10
2023-06-17T07:40:14.853Z,130.73
2023-06-17T07:42:18.079Z,269.80
2023-06-17T07:44:20.238Z,531.88
2023-06-17T07:46:22.508Z,531.05
2023-06-17T07:48:24.647Z,352.83
2023-06-17T07:50:26.799Z,112.93
2023-06-17T07:52:28.889Z,307.15
2023-06-17T07:54:32.159Z,46.83
2023-06-17T07:56:34.150Z,19.17
2023-06-17T07:58:36.321Z,6.20
2023-06-17T08:00:38.449Z,5.60
2023-06-17T08:02:42.181Z,12.63
2023-06-17T08:04:44.457Z,8.02
2023-06-17T08:06:46.915Z,9.20
2023-06-17T08:08:49.145Z,6.55
2023-06-17T08:10:51.210Z,14.52
2023-06-17T08:12:53.334Z,8.40
2023-06-17T08:14:55.364Z,7.05
2023-06-17T08:16:57.430Z,8.32
2023-06-17T08:18:59.557Z,8.23
2023-06-17T08:21:01.962Z,10.48
2023-06-17T08:23:04.378Z,12.43
2023-06-17T08:25:07.291Z,9.75
2023-06-17T08:27:11.268Z,5.80
2023-06-17T08:29:14.757Z,7.97
2023-06-17T08:31:18.007Z,9.40
2023-06-17T08:33:20.273Z,15.23
2023-06-17T08:35:22.278Z,9.02
2023-06-17T08:37:24.399Z,6.35
2023-06-17T08:39:26.558Z,11.43
2023-06-17T08:41:29.514Z,10.00
2023-06-17T08:43:32.573Z,5.78
2023-06-17T08:45:36.490Z,6.57
2023-06-17T08:47:40.511Z,11.98
2023-06-17T08:49:45.625Z,9.20
2023-06-17T08:51:50.414Z,5.72
2023-06-17T08:53:58.607Z,9.32
2023-06-17T08:56:00.918Z,11.43
2023-06-17T08:58:03.966Z,9.48
2023-06-17T09:00:07.568Z,12.85
2023-06-17T09:02:13.370Z,8.85
2023-06-17T09:04:16.032Z,9.68
2023-06-17T09:06:21.676Z,12.00
2023-06-17T09:08:24.854Z,8.32
2023-06-17T09:10:27.299Z,11.00
2023-06-17T09:12:40.282Z,7.70
2023-06-17T09:14:46.523Z,10.50
2023-06-17T09:16:51.084Z,5.57
2023-06-17T09:18:57.442Z,8.63
2023-06-17T09:20:59.742Z,5.95
2023-06-17T09:23:02.343Z,9.57
2023-06-17T09:25:05.666Z,4.85
2023-06-17T09:27:08.962Z,6.45
2023-06-17T09:29:15.396Z,7.25
2023-06-17T09:31:19.922Z,5.65
2023-06-17T09:33:23.412Z,9.73
2023-06-17T09:35:25.848Z,7.47
2023-06-17T09:37:27.985Z,5.43
2023-06-17T09:39:32.945Z,4.90
2023-06-17T09:41:39.093Z,5.88
2023-06-17T09:43:42.969Z,8.73
2023-06-17T09:45:46.285Z,6.32
2023-06-17T09:47:56.751Z,8.30
2023-06-17T09:50:03.717Z,8.48
2023-06-17T09:52:10.636Z,6.65
2023-06-17T09:54:12.846Z,7.55
2023-06-17T09:56:16.102Z,11.57
2023-06-17T09:58:22.335Z,5.90
2023-06-17T10:00:25.955Z,10.90
2023-06-17T10:02:29.292Z,5.13
2023-06-17T10:04:31.732Z,6.60
2023-06-17T10:06:37.901Z,10.38
2023-06-17T10:08:44.656Z,8.30
2023-06-17T10:10:49.479Z,11.57
2023-06-17T10:12:55.735Z,6.95
2023-06-17T10:14:59.990Z,11.00
2023-06-17T10:17:04.510Z,8.70
2023-06-17T10:19:09.658Z,7.55
2023-06-17T10:21:13.856Z,12.73
2023-06-17T10:23:17.651Z,8.60
2023-06-17T10:25:19.818Z,7.30
2023-06-17T10:27:22.822Z,7.38
2023-06-17T10:29:27.156Z,10.88
2023-06-17T10:31:31.838Z,10.13
2023-06-17T10:33:34.129Z,7.07
2023-06-17T10:35:47.244Z,7.93
2023-06-17T10:37:49.976Z,4.32
2023-06-17T10:39:53.627Z,11.27
2023-06-17T10:41:58.914Z,5.70
2023-06-17T10:44:03.666Z,8.30
2023-06-17T10:46:05.991Z,6.88
2023-06-17T10:48:35.301Z,9.82
2023-06-17T10:50:37.581Z,5.88
2023-06-17T10:52:40.695Z,8.27
2023-06-17T10:54:47.412Z,10.55
2023-06-17T10:56:53.091Z,8.63
2023-06-17T10:58:55.723Z,8.80
2023-06-17T11:01:05.189Z,9.23
2023-06-17T11:03:10.375Z,8.23
2023-06-17T11:05:12.759Z,13.15
2023-06-17T11:07:16.698Z,7.90
2023-06-17T11:09:19.884Z,10.70
2023-06-17T11:11:22.343Z,8.57
2023-06-17T11:13:24.681Z,8.48
2023-06-17T11:15:27.160Z,7.97
2023-06-17T11:17:29.493Z,10.43
2023-06-17T11:19:32.334Z,10.73
2023-06-17T11:21:34.635Z,7.32
2023-06-17T11:23:39.835Z,5.35
2023-06-17T11:25:45.510Z,9.52
2023-06-17T11:27:48.458Z,9.40
2023-06-17T11:29:50.666Z,9.93
2023-06-17T11:31:53.209Z,8.32
2023-06-17T11:33:59.690Z,8.40
2023-06-17T11:36:03.704Z,11.55
2023-06-17T11:38:06.452Z,10.30
2023-06-17T11:40:12.296Z,5.63
2023-06-17T11:42:14.534Z,12.65
2023-06-17T11:44:16.746Z,6.63
2023-06-17T11:46:22.153Z,7.32
2023-06-17T11:48:34.974Z,10.23
2023-06-17T11:50:38.726Z,8.95
2023-06-17T11:52:41.013Z,9.52
2023-06-17T11:54:47.227Z,7.82
2023-06-17T11:56:51.136Z,12.10
2023-06-17T11:58:54.309Z,11.93
2023-06-17T12:01:00.833Z,15.48
2023-06-17T12:03:05.153Z,10.27
2023-06-17T12:05:07.794Z,6.65
2023-06-17T12:07:10.103Z,9.68
2023-06-17T12:09:15.357Z,6.55
2023-06-17T12:11:27.433Z,12.05
2023-06-17T12:13:39.224Z,5.35
2023-06-17T12:15:41.763Z,11.32
2023-06-17T12:17:46.758Z,8.90
2023-06-17T12:19:49.817Z,12.75
2023-06-17T12:21:52.642Z,5.43
2023-06-17T12:23:57.407Z,9.38
2023-06-17T12:25:59.522Z,9.88
2023-06-17T12:28:03.282Z,11.52
2023-06-17T12:30:08.525Z,11.93
2023-06-17T12:32:11.050Z,7.22
2023-06-17T12:34:13.228Z,9.50
2023-06-17T12:36:17.132Z,6.97
2023-06-17T12:38:19.797Z,7.78
2023-06-17T12:40:22.368Z,12.15
2023-06-17T12:42:24.869Z,9.55
2023-06-17T12:44:27.342Z,5.63
2023-06-17T12:46:30.316Z,8.52
2023-06-17T12:48:35.301Z,10.55
2023-06-17T12:50:37.661Z,11.15
2023-06-17T12:52:40.028Z,8.05
2023-06-17T12:54:46.055Z,18.33
2023-06-17T12:56:48.958Z,7.15
2023-06-17T12:58:51.133Z,7.40
2023-06-17T13:00:55.085Z,9.38
2023-06-17T13:02:57.445Z,9.13
2023-06-17T13:04:59.604Z,8.13
2023-06-17T13:07:02.692Z,11.30
2023-06-17T13:09:05.417Z,8.35
2023-06-17T13:11:07.877Z,7.15
2023-06-17T13:13:10.626Z,5.38
2023-06-17T13:15:12.839Z,5.93
2023-06-17T13:17:15.243Z,19.15
2023-06-17T13:19:18.956Z,12.55
2023-06-17T13:21:21.174Z,9.15
2023-06-17T13:23:23.551Z,13.38
2023-06-17T13:25:26.214Z,11.60
2023-06-17T13:27:30.310Z,11.48
2023-06-17T13:29:32.469Z,12.05
2023-06-17T13:31:35.443Z,9.57
2023-06-17T13:33:39.245Z,10.10
2023-06-17T13:35:41.416Z,7.95
2023-06-17T13:37:43.703Z,13.38
2023-06-17T13:39:46.222Z,7.90
2023-06-17T13:41:48.539Z,6.50
2023-06-17T13:43:50.727Z,12.73
2023-06-17T13:45:53.816Z,10.45
2023-06-17T13:47:56.153Z,7.95
2023-06-17T13:49:58.771Z,10.30
2023-06-17T13:52:03.773Z,9.48
2023-06-17T13:54:06.123Z,7.30
2023-06-17T13:56:08.243Z,8.60
2023-06-17T13:58:10.445Z,9.98
2023-06-17T14:00:13.536Z,8.38
2023-06-17T14:02:16.042Z,7.43
2023-06-17T14:04:18.354Z,12.07
2023-06-17T14:06:21.369Z,7.13
2023-06-17T14:08:24.218Z,7.93
2023-06-17T14:10:26.630Z,10.55
2023-06-17T14:12:28.925Z,7.90
2023-06-17T14:14:31.306Z,9.20
2023-06-17T14:16:34.336Z,11.27
2023-06-17T14:18:36.792Z,6.40
2023-06-17T14:20:39.179Z,9.52
2023-06-17T14:22:41.440Z,7.30
2023-06-17T14:24:43.828Z,10.73
2023-06-17T14:26:46.071Z,12.18
2023-06-17T14:28:48.317Z,16.38
2023-06-17T14:30:52.402Z,8.70
2023-06-17T14:32:54.618Z,9.13
2023-06-17T14:34:57.804Z,7.57
2023-06-17T14:37:00.027Z,11.18
2023-06-17T14:39:02.490Z,15.45
2023-06-17T14:41:04.862Z,7.80
2023-06-17T14:43:08.692Z,10.50
2023-06-17T14:45:12.283Z,7.15
2023-06-17T14:47:14.613Z,7.32
2023-06-17T14:49:16.850Z,13.00
2023-06-17T14:51:18.994Z,10.25
2023-06-17T14:53:29.512Z,8.43
2023-06-17T14:55:31.843Z,9.35
2023-06-17T14:57:34.231Z,8.30
2023-06-17T14:59:37.302Z,9.98
2023-06-17T15:01:40.838Z,8.55
2023-06-17T15:03:43.410Z,8.60
2023-06-17T15:05:45.922Z,8.68
2023-06-17T15:07:50.152Z,11.63
2023-06-17T15:09:52.386Z,8.98
2023-06-17T15:11:56.610Z,10.13
2023-06-17T15:13:58.708Z,7.10
2023-06-17T15:16:00.930Z,6.88
2023-06-17T15:18:03.225Z,9.52
2023-06-17T15:20:06.902Z,9.25
2023-06-17T15:22:09.268Z,10.88
2023-06-17T15:24:12.577Z,13.65
2023-06-17T15:26:14.687Z,9.00
2023-06-17T15:28:16.865Z,7.93
2023-06-17T15:30:21.983Z,9.15
2023-06-17T15:32:24.288Z,8.95
2023-06-17T15:34:26.484Z,9.70
2023-06-17T15:36:29.778Z,11.75
2023-06-17T15:38:32.054Z,11.38
2023-06-17T15:40:34.417Z,8.88
2023-06-17T15:42:37.438Z,7.28
2023-06-17T15:44:39.795Z,9.50
2023-06-17T15:46:42.527Z,7.63
2023-06-17T15:48:44.877Z,9.13
2023-06-17T15:50:47.523Z,11.20
2023-06-17T15:52:49.676Z,7.78
2023-06-17T15:54:54.324Z,9.75
2023-06-17T15:56:56.628Z,13.90
2023-06-17T15:59:01.043Z,7.80
2023-06-17T16:01:05.386Z,12.05
2023-06-17T16:03:09.057Z,12.10
2023-06-17T16:05:12.062Z,10.63
2023-06-17T16:07:15.640Z,12.82
2023-06-17T16:09:18.234Z,8.80
2023-06-17T16:11:20.398Z,8.00
2023-06-17T16:13:23.922Z,7.70
2023-06-17T16:15:26.038Z,8.80
2023-06-17T16:17:28.253Z,9.00
2023-06-17T16:19:33.208Z,10.20
2023-06-17T16:21:36.850Z,14.38
2023-06-17T16:23:39.098Z,7.80
2023-06-17T16:25:54.907Z,10.38
2023-06-17T16:27:58.217Z,8.40
2023-06-17T16:30:00.422Z,11.95
2023-06-17T16:32:02.719Z,13.15
2023-06-17T16:34:05.446Z,14.55
2023-06-17T16:36:07.697Z,8.75
2023-06-17T16:38:09.996Z,9.32
2023-06-17T16:40:12.559Z,9.13
2023-06-17T16:42:14.996Z,10.43
2023-06-17T16:44:17.537Z,12.00
2023-06-17T16:46:19.890Z,9.93
2023-06-17T16:48:22.295Z,7.57
2023-06-17T16:50:24.795Z,10.57
2023-06-17T16:52:27.756Z,9.32
2023-06-17T16:54:30.059Z,11.75
2023-06-17T16:56:32.280Z,12.25
2023-06-17T16:58:34.780Z,12.57
2023-06-17T17:00:37.041Z,12.90
2023-06-17T17:02:39.204Z,13.05
2023-06-17T17:04:41.454Z,14.85
2023-06-17T17:06:44.211Z,13.82
2023-06-17T17:08:49.993Z,11.77
2023-06-17T17:10:52.649Z,13.55
2023-06-17T17:12:54.965Z,14.00
2023-06-17T17:14:57.191Z,10.23
2023-06-17T17:17:00.286Z,10.40
2023-06-17T17:19:02.617Z,11.57
2023-06-17T17:21:04.819Z,12.43
2023-06-17T17:23:07.881Z,9.90
2023-06-17T17:25:11.429Z,11.40
2023-06-17T17:27:13.669Z,19.15
2023-06-17T17:29:15.916Z,8.50
2023-06-17T17:31:18.030Z,9.88
2023-06-17T17:33:23.676Z,6.95
2023-06-17T17:35:26.760Z,9.07
2023-06-17T17:37:29.157Z,10.52
2023-06-17T17:39:31.426Z,9.85
2023-06-17T17:41:33.541Z,13.70
2023-06-17T17:43:35.922Z,9.20
2023-06-17T17:45:38.221Z,10.73
2023-06-17T17:47:40.490Z,9.02
2023-06-17T17:49:42.776Z,8.20
2023-06-17T17:51:45.098Z,9.73
2023-06-17T17:53:47.384Z,11.32
2023-06-17T17:55:49.825Z,8.35
2023-06-17T17:57:52.402Z,12.27
2023-06-17T17:59:54.602Z,7.50
2023-06-17T18:01:56.726Z,11.13
2023-06-17T18:03:59.117Z,10.00
2023-06-17T18:06:01.336Z,8.77
2023-06-17T18:08:03.599Z,9.80
2023-06-17T18:10:06.729Z,11.93
2023-06-17T18:12:09.004Z,10.32
2023-06-17T18:14:11.477Z,8.38
2023-06-17T18:16:13.877Z,9.63
2023-06-17T18:18:16.219Z,9.20
2023-06-17T18:20:18.627Z,13.68
2023-06-17T18:22:21.029Z,10.05
2023-06-17T18:24:23.179Z,9.02
2023-06-17T18:26:26.017Z,11.75
2023-06-17T18:28:28.275Z,12.10
2023-06-17T18:30:30.846Z,7.18
2023-06-17T18:32:33.118Z,8.57
2023-06-17T18:34:35.384Z,9.57
2023-06-17T18:36:37.831Z,9.60
2023-06-17T18:38:40.235Z,12.07
2023-06-17T18:40:42.678Z,10.73
2023-06-17T18:42:45.048Z,12.23
2023-06-17T18:44:47.395Z,8.93
2023-06-17T18:46:49.726Z,12.80
2023-06-17T18:48:53.480Z,9.50
2023-06-17T18:50:56.041Z,9.07
2023-06-17T18:52:58.183Z,10.52
2023-06-17T18:55:00.494Z,8.63
2023-06-17T18:57:02.688Z,12.27
2023-06-17T18:59:05.326Z,11.45
2023-06-17T19:01:07.697Z,12.80
2023-06-17T19:03:10.086Z,9.07
2023-06-17T19:05:12.436Z,12.88
2023-06-17T19:07:15.121Z,13.00
2023-06-17T19:09:17.562Z,7.22
2023-06-17T19:11:20.326Z,13.50
2023-06-17T19:13:22.977Z,10.15
2023-06-17T19:15:26.587Z,9.88
2023-06-17T19:17:28.743Z,14.05
2023-06-17T19:19:30.988Z,10.85
2023-06-17T19:21:33.332Z,17.42
2023-06-17T19:23:35.685Z,9.32
2023-06-17T19:25:38.359Z,13.88
2023-06-17T19:27:40.689Z,12.07
2023-06-17T19:29:44.228Z,12.75
2023-06-17T19:31:46.441Z,11.93
2023-06-17T19:33:48.730Z,11.77
2023-06-17T19:35:51.186Z,14.25
2023-06-17T19:37:53.488Z,14.77
2023-06-17T19:39:55.970Z,16.38
2023-06-17T19:41:58.152Z,12.02
2023-06-17T19:44:00.365Z,10.20
2023-06-17T19:46:03.872Z,11.95
2023-06-17T19:48:06.424Z,14.07
2023-06-17T19:50:09.125Z,15.05
2023-06-17T19:52:11.275Z,9.80
2023-06-17T19:54:14.136Z,14.38
2023-06-17T19:56:17.058Z,13.40
2023-06-17T19:58:19.780Z,15.95
2023-06-17T20:00:22.288Z,16.70
2023-06-17T20:02:24.892Z,18.85
2023-06-17T20:04:27.239Z,12.55
2023-06-17T20:06:30.334Z,16.15
2023-06-17T20:08:32.570Z,10.60
2023-06-17T20:10:34.971Z,11.23
2023-06-17T20:12:37.334Z,14.13
2023-06-17T20:14:39.578Z,16.98
2023-06-17T20:16:42.212Z,14.95
2023-06-17T20:18:44.436Z,15.13
2023-06-17T20:20:46.710Z,14.65
2023-06-17T20:22:49.004Z,17.35
2023-06-17T20:24:51.451Z,14.85
2023-06-17T20:26:53.656Z,14.20
2023-06-17T20:28:56.128Z,14.13
2023-06-17T20:30:58.523Z,15.27
2023-06-17T20:33:00.734Z,16.15
2023-06-17T20:35:03.775Z,16.20
2023-06-17T20:37:06.952Z,18.80
2023-06-17T20:39:10.907Z,16.02
2023-06-17T20:41:13.141Z,14.85
2023-06-17T20:43:16.100Z,20.90
2023-06-17T20:45:18.678Z,16.42
2023-06-17T20:47:20.991Z,18.30
2023-06-17T20:49:23.674Z,12.20
2023-06-17T20:51:26.669Z,14.18
2023-06-17T20:53:29.010Z,11.27
2023-06-17T20:55:32.083Z,16.48
2023-06-17T20:57:34.487Z,19.92
2023-06-17T20:59:36.781Z,17.17
2023-06-17T21:01:39.118Z,17.60
2023-06-17T21:03:41.744Z,16.00
2023-06-17T21:05:43.951Z,15.20
2023-06-17T21:07:46.515Z,19.35
2023-06-17T21:09:49.410Z,15.98
2023-06-17T21:11:52.702Z,19.30
2023-06-17T21:13:54.793Z,17.25
2023-06-17T21:15:57.064Z,14.88
2023-06-17T21:17:59.334Z,17.02
2023-06-17T21:20:01.673Z,15.38
2023-06-17T21:22:05.166Z,18.23
2023-06-17T21:24:07.387Z,21.48
2023-06-17T21:26:09.758Z,16.02
2023-06-17T21:28:12.148Z,15.70
2023-06-17T21:30:14.771Z,21.67
2023-06-17T21:32:16.911Z,18.60
2023-06-17T21:34:19.227Z,17.42
2023-06-17T21:36:21.843Z,15.68
2023-06-17T21:38:24.704Z,23.20
2023-06-17T21:40:26.922Z,13.88
2023-06-17T21:42:29.095Z,20.40
2023-06-17T21:44:34.071Z,18.05
2023-06-17T21:46:37.791Z,24.20
2023-06-17T21:48:43.260Z,17.23
2023-06-17T21:50:45.827Z,18.05
2023-06-17T21:52:47.952Z,21.52
2023-06-17T21:54:50.261Z,19.08
2023-06-17T21:56:52.867Z,17.75
2023-06-17T21:58:55.216Z,16.27
2023-06-17T22:00:57.918Z,16.85
2023-06-17T22:03:00.300Z,21.52
2023-06-17T22:05:03.581Z,20.10
2023-06-17T22:07:06.537Z,17.25
2023-06-17T22:09:09.091Z,18.67
2023-06-17T22:11:13.499Z,19.88
2023-06-17T22:13:16.296Z,22.83
2023-06-17T22:15:18.703Z,17.65
2023-06-17T22:17:21.194Z,17.50
2023-06-17T22:19:23.433Z,14.75
2023-06-17T22:21:25.690Z,22.40
2023-06-17T22:23:27.858Z,17.27
2023-06-17T22:25:30.069Z,15.25
2023-06-17T22:27:32.503Z,16.67
2023-06-17T22:29:34.804Z,19.27
2023-06-17T22:31:37.364Z,17.75
2023-06-17T22:33:40.248Z,17.90
2023-06-17T22:35:42.812Z,17.55
2023-06-17T22:37:45.266Z,14.85
2023-06-17T22:39:47.689Z,16.52
2023-06-17T22:41:50.089Z,16.25
2023-06-17T22:43:52.855Z,18.50
2023-06-17T22:45:55.336Z,19.70
2023-06-17T22:47:57.748Z,15.73
2023-06-17T22:50:00.018Z,17.08
2023-06-17T22:52:02.257Z,20.38
2023-06-17T22:54:04.672Z,19.40
2023-06-17T22:56:07.087Z,15.35
2023-06-17T22:58:09.487Z,18.73
2023-06-17T23:00:12.697Z,18.35
2023-06-17T23:02:15.068Z,18.90
2023-06-17T23:04:17.438Z,16.35
2023-06-17T23:06:19.561Z,15.23
2023-06-17T23:08:21.855Z,15.48
2023-06-17T23:10:24.505Z,18.17
2023-06-17T23:12:26.993Z,14.27
2023-06-17T23:14:29.141Z,21.67
2023-06-17T23:16:31.303Z,15.90
2023-06-17T23:18:33.646Z,13.65
2023-06-17T23:20:37.282Z,12.30
2023-06-17T23:22:39.533Z,14.02
2023-06-17T23:24:42.967Z,18.13
2023-06-17T23:26:46.162Z,14.10
2023-06-17T23:28:50.131Z,15.40
2023-06-17T23:30:53.026Z,13.77
2023-06-17T23:32:55.294Z,13.57
2023-06-17T23:34:57.803Z,13.68
2023-06-17T23:37:00.636Z,11.40
2023-06-17T23:39:02.940Z,12.13
2023-06-17T23:41:05.104Z,13.77
2023-06-17T23:43:07.415Z,15.23
2023-06-17T23:45:13.170Z,14.63
2023-06-17T23:47:18.623Z,12.63
2023-06-17T23:49:20.893Z,14.48
2023-06-17T23:51:23.621Z,14.05
2023-06-17T23:53:26.974Z,17.20
2023-06-17T23:55:29.101Z,12.40
2023-06-17T23:57:31.295Z,15.85
2023-06-17T23:59:34.134Z,14.50
